Date,TemperatureHighF,TemperatureAvgF,TemperatureLowF,DewpointHighF,DewpointAvgF,DewpointLowF,HumidityHigh,HumidityAvg,HumidityLow,PressureMaxIn,PressureMinIn,WindSpeedMaxMPH,WindSpeedAvgMPH,GustSpeedMaxMPH,PrecipitationSumIn
2013-1-1,50.5,46.8,43.1,50.0,44.7,35.0,98,93,69,30.12,29.96,6,0,6,1.03
2013-1-2,47.0,41.4,38.6,46.4,40.3,36.8,100,96,93,30.12,30.00,8,0,8,0.01
2013-1-3,44.4,36.2,26.8,34.7,31.8,25.2,94,85,57,30.37,30.16,1,0,7,0.00
2013-1-4,47.6,32.8,23.9,29.8,26.2,22.5,95,79,45,30.43,30.34,2,0,9,0.00
2013-1-5,48.6,39.5,24.7,38.5,30.4,23.0,93,72,47,30.40,30.24,7,0,7,0.03
2013-1-6,48.4,40.4,32.2,40.8,37.2,29.7,97,89,67,30.31,30.17,9,0,9,0.04
2013-1-7,52.9,36.2,25.6,36.6,30.2,24.1,96,81,49,30.40,30.29,8,0,8,0.00
2013-1-8,56.6,42.6,27.6,46.5,37.1,26.0,96,82,61,30.40,30.28,9,0,9,0.01
2013-1-9,55.1,51.8,50.1,53.7,49.7,46.1,97,93,83,30.44,30.31,6,0,6,0.08
2013-1-10,51.2,50.3,50.0,50.0,49.3,48.9,97,96,96,30.42,30.38,3,0,3,0.01
2013-1-12,71.2,66.6,62.2,66.2,63.1,59.1,99,89,79,30.15,30.02,9,0,9,0.09
2013-1-13,69.0,64.1,60.9,63.3,61.0,58.0,98,90,80,30.07,29.96,14,1,14,1.39
2013-1-14,61.2,44.5,39.1,60.9,43.7,38.1,99,97,94,30.26,30.04,9,0,9,2.05
2013-1-15,43.2,41.8,39.6,42.9,41.3,38.8,99,98,97,30.16,29.98,6,0,6,1.24
2013-1-16,50.4,45.7,42.8,49.8,45.2,42.0,99,98,96,30.07,29.93,7,0,7,0.21
2013-1-17,43.1,39.3,31.4,42.6,38.0,29.5,98,95,87,30.34,29.71,19,2,19,0.55
2013-1-18,50.2,35.5,27.1,37.2,30.7,26.1,98,84,53,30.54,30.34,7,0,7,0.01
2013-1-19,55.0,37.8,26.0,36.4,30.6,24.8,98,78,43,30.44,30.22,10,1,10,0.00
2013-1-20,59.6,40.0,27.7,42.2,34.0,26.6,98,82,46,30.23,30.12,6,0,6,0.01
2013-1-21,31.8,28.5,26.4,30.3,27.2,25.2,96,95,94,30.15,30.11,0,0,0,0.00
2013-1-22,38.9,30.4,24.4,23.2,15.9,10.5,87,56,36,30.37,30.22,2,0,9,0.00
2013-1-23,51.0,36.7,29.5,32.8,22.2,13.1,91,57,43,30.38,30.17,3,0,11,0.00
2013-1-24,47.7,38.2,26.8,42.1,25.1,12.4,90,61,34,30.38,30.17,3,1,12,0.00
2013-1-25,36.2,33.3,29.4,34.7,25.0,13.7,95,74,43,30.36,30.12,5,2,15,0.08
2013-1-26,50.0,40.0,32.6,36.7,34.2,30.8,100,81,54,30.30,30.18,5,0,8,0.00
2013-1-27,48.5,47.7,46.4,36.6,35.6,34.5,64,63,61,30.37,30.34,3,2,13,0.00
2013-1-28,54.2,48.6,44.9,47.6,40.4,33.6,83,73,63,30.37,30.26,5,2,12,0.00
2013-1-29,68.2,56.4,45.1,60.9,53.4,43.7,97,90,77,30.23,29.97,2,0,9,0.00
2013-2-1,43.8,33.1,25.1,33.8,20.1,13.6,77,60,39,30.42,30.09,6,1,12,0.00
2013-2-2,35.0,28.0,19.6,33.5,24.5,17.4,95,87,62,30.37,30.12,2,0,9,0.04
2013-2-3,54.4,37.6,25.2,40.8,30.1,24.0,98,78,40,30.15,30.02,4,1,14,0.03
2013-2-4,48.2,36.6,25.4,33.7,28.9,23.4,95,75,49,30.16,30.00,2,0,7,0.00
2013-2-5,64.4,47.6,37.2,47.9,40.0,33.4,95,76,41,30.06,29.95,3,0,9,0.03
2013-2-6,65.2,44.7,30.1,46.9,36.2,29.1,98,76,38,30.20,30.06,2,0,7,0.00
2013-2-7,52.3,45.1,37.8,48.4,41.9,34.9,97,89,71,30.14,29.95,4,0,4,0.08
2013-2-8,57.2,46.4,36.6,49.5,42.4,31.8,98,87,56,30.26,29.92,3,0,11,0.07
2013-2-9,57.6,44.0,32.5,37.5,33.2,28.2,89,68,39,30.33,30.21,8,1,10,0.00
2013-2-10,56.5,49.7,38.4,51.2,40.1,30.3,97,72,37,30.26,30.01,18,2,18,0.74
2013-2-11,57.2,51.2,41.0,55.6,49.1,39.8,99,93,71,30.15,30.01,12,1,12,0.23
2013-2-12,50.6,44.8,40.0,42.1,40.2,34.5,97,85,54,30.14,29.85,4,0,4,0.12
2013-2-13,47.7,43.8,39.5,46.7,41.6,36.8,98,92,79,30.01,29.71,11,1,12,0.03
2013-2-14,57.2,43.5,33.4,41.1,36.3,31.6,93,77,50,30.10,30.00,8,0,8,0.00
2013-2-15,61.2,44.8,30.5,44.3,37.4,29.2,98,78,49,30.11,30.00,14,1,14,0.00
2013-3-15,74.8,63.0,46.8,49.2,46.0,39.1,83,56,39,30.16,29.96,13,2,13,0.00
2013-3-16,77.5,62.4,47.7,53.0,47.9,43.7,89,61,37,29.98,29.85,15,2,15,0.00
2013-3-17,70.8,57.7,45.0,56.8,49.5,42.8,96,76,53,29.99,29.88,12,1,13,0.00
2013-3-18,62.0,54.4,47.8,57.2,52.4,45.9,98,93,81,29.93,29.78,8,1,16,0.70
2013-3-19,64.0,51.0,35.2,52.2,36.5,22.7,98,63,29,30.14,29.90,14,1,14,0.00
2013-3-20,60.0,45.2,32.0,32.8,27.0,19.5,86,53,25,30.16,29.93,14,1,14,0.00
2013-3-21,37.9,33.1,28.3,30.8,25.1,16.2,81,72,60,30.00,29.99,11,0,11,0.00
2013-3-25,42.5,37.1,33.4,33.4,27.2,25.1,79,67,61,30.09,29.71,5,2,15,0.00
2013-3-26,41.0,35.7,30.6,30.5,28.4,26.1,89,75,60,30.31,30.08,3,1,11,0.00
2013-3-27,54.8,39.3,26.4,32.0,28.3,24.4,95,68,37,30.37,30.25,3,1,11,0.00
2013-3-28,61.6,43.0,26.7,36.7,31.2,25.0,95,68,36,30.37,30.24,3,1,11,0.00
2013-3-29,57.7,44.3,32.2,41.7,35.9,30.4,100,75,43,30.34,30.20,2,0,6,0.00
2013-3-30,67.6,52.6,43.6,54.9,46.9,41.2,97,83,50,30.23,30.01,3,0,10,0.38
2013-3-31,64.1,59.1,53.7,59.5,56.8,52.9,99,92,75,30.01,29.87,10,1,10,0.39
2013-4-1,70.5,56.3,40.9,55.5,47.1,39.8,100,75,39,30.08,29.90,8,1,14,0.01
2013-4-2,59.3,48.8,39.2,40.9,32.1,25.9,89,55,31,30.24,30.08,9,1,9,0.00
2013-4-3,58.7,50.4,40.8,41.2,30.5,24.8,77,47,34,30.23,30.13,9,1,9,0.00
2013-4-4,48.0,44.6,43.3,44.2,43.1,41.5,97,94,78,30.17,29.98,6,0,6,0.77
2013-4-5,66.8,52.1,42.3,46.7,42.9,39.3,97,75,38,30.11,29.98,13,1,13,0.00
2013-4-6,71.9,54.8,37.4,47.3,41.8,35.8,94,66,37,30.20,30.09,12,1,12,0.00
2013-4-11,64.9,63.1,62.5,62.7,62.0,60.8,98,96,90,29.74,29.61,15,1,18,1.14
2013-4-12,68.3,58.8,46.0,62.6,49.0,39.8,100,73,38,29.98,29.64,11,1,15,0.10
2013-4-13,75.5,56.2,39.6,49.3,43.5,38.4,100,68,29,30.09,29.97,8,0,8,0.00
2013-4-14,63.2,53.1,42.5,54.6,48.1,40.9,96,84,55,30.05,29.94,13,1,13,0.02
2013-4-15,77.0,64.8,54.8,61.8,57.6,53.2,98,79,57,30.12,29.93,11,1,11,0.00
2013-4-16,80.0,69.8,62.4,67.4,63.0,59.0,94,80,65,30.24,30.11,10,1,10,0.00
2013-4-17,84.0,71.1,63.1,70.9,64.8,61.8,96,82,57,30.22,30.07,13,1,13,0.41
2013-4-18,80.6,70.1,60.1,64.8,61.3,58.9,98,76,50,30.07,29.84,5,1,16,0.12
2013-4-19,72.6,56.4,41.3,65.6,51.2,38.6,96,84,64,30.11,29.72,12,1,16,0.09
2013-4-20,64.3,48.8,32.9,41.2,36.3,31.3,95,66,33,30.28,30.11,11,0,11,0.03
2013-4-21,71.2,54.9,39.3,48.6,41.2,35.3,93,63,35,30.36,30.22,8,0,8,0.02
2013-4-22,72.8,55.8,39.7,50.4,45.0,38.3,98,71,38,30.33,30.14,9,0,9,0.01
2013-4-23,74.9,59.0,42.5,54.5,47.6,39.7,95,69,45,30.23,30.05,10,1,10,0.01
2013-4-24,71.6,59.8,48.5,62.6,54.9,44.5,95,84,68,30.23,30.04,13,1,13,0.01
2013-4-25,54.2,44.8,39.8,44.6,40.5,37.3,91,85,65,30.33,30.22,8,0,8,0.00